Athens, Texas
Current Conditions -  °F | °C
As of 4:35 PM on Thursday 23 Oct 2014 (Local Time) from KF44 Reporting Station
Scattered Clouds Scattered Clouds  
Wind Chill: 75°   Ceiling: Unl
Heat Index: 75°   Visibility: 10mi
Dew Point: 54°   Wind: 5mph
Humidity: 47%   Direction: 50°NE
Pressure: 30.07"   Gusts: NA
Location:  32.2°N, 95.85°W
Report Text: KF44 232135Z AUTO 05004KT 10SM SCT120 24/12 A3007 RMK AO2
Loading
Personal Weather Stations






























Interactive Weather Map
Tropical Storm Tracking
New forecast layout! Learn more

10-Day Weather Forecast

Advertisements
Track Severe Weather on mobile